Relevés horaires Beauvechain (Belgique)


Relevés horaires à Beauvechain - Lundi 22 Juin 2020
Heure UTC1 Température [°C] Vent [km/h] Hum. [%] Pres.4 [hPa] Visi. [Km] Nébu. [octa] Préc.5 [mm] Cond.
2m. Res. Ros. Dir.2 Vit. Moy. Raf.3
23:00 15.9 15.9 11.2 NNO 1.9 -- 1.9 74 1025.7(0.4/3h) 20 -- -- --
22:00 17.7 17.7 11.1 NNO 1.9 -- 3.7 65 1025.5(0.2/3h) 20 -- -- --
21:00 18.0 18.0 10.4 NNO 1.9 -- 3.7 61 1025.4(0.1/3h) 20 -- -- --
20:00 19.3 19.3 10.9 NNO 1.9 -- 3.7 58 1025(-0.1/3h) 20 -- -- --
19:00 20.9 20.9 11.5 NNO 1.9 -- 3.7 55 1025(-0.3/3h) 20 -- -- --
18:00 21.8 21.8 10.6 NNO 1.9 -- 9.3 49 1025(-0.7/3h) 19 -- -- --
17:00 22.4 22.4 10.7 NNO 1.9 -- 7.4 47 1025.2(-0.9/3h) 20 -- -- --
16:00 22.3 22.3 11.5 NNO 1.9 -- 9.3 50 1025.4(-1.1/3h) 20 -- -- --
15:00 22.0 22.0 11.0 OSO 5.6 -- 9.3 50 1025.7(-0.8/3h) 20 2/8 -- --
14:00 21.5 21.5 10.8 N 3.7 -- 9.3 51 1026(-0.3/3h) 20 2/8 -- --
13:00 21.5 21.5 11.3 N 3.7 -- 9.3 52 1026.5(0.2/3h) 20 2/8 -- --
12:00 19.3 19.3 11.5 NNO 1.9 -- 11.1 61 1026.7(0.4/3h) 20 2/8 -- --
11:00 20.1 20.1 11.6 NNO 1.9 -- 7.4 58 1026.5(0.8/3h) 20 2/8 -- --
10:00 19.3 19.3 13.4 NNO 1.9 -- 7.4 69 1026.4(0.8/3h) 15 2/8 -- --
09:00 17.0 17.0 12.8 NNO 1.9 -- 11.1 76 1026.2(1.3/3h) 15 5/8 -- --
08:00 16.0 16.0 13.4 NNO 1.9 -- 9.3 85 1026(1.5/3h) 12 3/8 -- --
07:00 14.4 14.4 13.1 OSO 5.6 -- 11.1 92 1025.7(1.6/3h) 8 6/8 -- --
06:00 13.6 13.3 12.9 OSO 7.4 -- 11.1 96 1025(1.2/3h) 5 6/8 1/12h
Du brouillard ou du brouillard glacé (plus correctement designé sous le nom de brume) est observé et la visibilité n'est ni inférieure à 5/8 de mille ni supérieure à 6 milles
05:00 12.5 12.4 12.0 OSO 5.6 -- 9.3 97 1024.5(0.8/3h) 5 -- -- --
04:00 12.1 12 11.5 OSO 5.6 -- 9.3 96 1024.2(0.6/3h) 5 -- -- --
03:00 11.6 11 11.1 OSO 7.4 -- 11.1 97 1024(0.6/3h) 9 -- -- --
02:00 11.1 10.8 10.5 SO 5.6 -- 9.3 96 1023.7(0.7/3h) 12 -- -- --
01:00 11.3 11.1 10.6 SO 5.6 -- 9.3 95 1023.6(0.9/3h) 16 -- -- --
00:00 11.6 11.4 10.9 SO 5.6 -- 20.4 95 1023.2(1.3/3h) 20 -- 1/6h
NA

1 Coordinated Universal Time. Actuellement il est 13:00 locale et 11:00 UTC.

2 Le vent souffle depuis la direction indiquée vers la direction oposée.

3 Les rafales max. sont disponible 40 min après l'heure du relevé.

4 Pour les stations d'altitude (plus de 600m) le géopotentiel du niveau le plus proche de la pression obligatoire est indiqué.

5 Les stations disposant d'un diffuseur peuvent indiquer "trace". Cela signifie que des précipitations ont touchés le sol mais que la quantité est inférieure à 0.1 mm.

Récapitulatif de la journée
Température [°C] Vent [km/h] Ensoleillement4 [h] Precipitations totale5 [mm] Pression [Hpa]
Min1 Max.2 Moy.3 Max. Min Max.
11.1 23.0 0 20.4 0 h 0 min 0 1023.2 1026.7

1 Température minimale relevée entre 18:00 UTC la veille et 18:00 UTC le jour donné.

2 Température maximale relevée entre 06:00 UTC le jour donné et 06:00 UTC le lendemain.

3 Vent moyen de la journée basé sur les relevés horaires.

4 Ensoleillement en heures relevé entre 06:00 UTC la veille et 06:00 UTC le jour donné.

5 Précipitations totales tombées entre 06:00 UTC la jour donné et 06:00 UTC le lendemain.

Graphiques horaires